sensor_id;sensor_type;location;lat;lon;timestamp;temperature;humidity
3648;DHT22;1840;48.892;15.312;2022-09-25T00:01:23;9.60;99.30
3648;DHT22;1840;48.892;15.312;2022-09-25T00:03:51;9.60;99.50
3648;DHT22;1840;48.892;15.312;2022-09-25T00:06:23;9.70;99.40
3648;DHT22;1840;48.892;15.312;2022-09-25T00:08:51;9.70;99.20
3648;DHT22;1840;48.892;15.312;2022-09-25T00:11:22;9.60;99.50
3648;DHT22;1840;48.892;15.312;2022-09-25T00:13:51;9.60;99.40
3648;DHT22;1840;48.892;15.312;2022-09-25T00:16:21;9.50;99.60
3648;DHT22;1840;48.892;15.312;2022-09-25T00:18:50;9.50;99.70
3648;DHT22;1840;48.892;15.312;2022-09-25T00:21:37;9.40;99.90
3648;DHT22;1840;48.892;15.312;2022-09-25T00:24:07;9.50;99.80
3648;DHT22;1840;48.892;15.312;2022-09-25T00:26:37;9.50;99.60
3648;DHT22;1840;48.892;15.312;2022-09-25T00:29:06;9.50;99.70
3648;DHT22;1840;48.892;15.312;2022-09-25T00:31:36;9.60;99.90
3648;DHT22;1840;48.892;15.312;2022-09-25T00:34:04;9.60;99.60
3648;DHT22;1840;48.892;15.312;2022-09-25T00:36:33;9.50;99.50
3648;DHT22;1840;48.892;15.312;2022-09-25T00:39:03;9.60;99.40
3648;DHT22;1840;48.892;15.312;2022-09-25T00:41:31;9.60;99.30
3648;DHT22;1840;48.892;15.312;2022-09-25T00:44:01;9.60;99.70
3648;DHT22;1840;48.892;15.312;2022-09-25T00:46:32;9.50;99.40
3648;DHT22;1840;48.892;15.312;2022-09-25T00:49:03;9.60;99.40
3648;DHT22;1840;48.892;15.312;2022-09-25T00:51:35;9.50;99.40
3648;DHT22;1840;48.892;15.312;2022-09-25T00:54:08;9.60;99.40
3648;DHT22;1840;48.892;15.312;2022-09-25T00:56:40;9.60;99.30
3648;DHT22;1840;48.892;15.312;2022-09-25T00:59:11;9.50;99.50
3648;DHT22;1840;48.892;15.312;2022-09-25T01:01:41;9.60;99.60
3648;DHT22;1840;48.892;15.312;2022-09-25T01:04:09;9.60;99.50
3648;DHT22;1840;48.892;15.312;2022-09-25T01:06:39;9.70;99.30
3648;DHT22;1840;48.892;15.312;2022-09-25T01:09:08;9.60;99.50
3648;DHT22;1840;48.892;15.312;2022-09-25T01:11:36;9.50;99.60
3648;DHT22;1840;48.892;15.312;2022-09-25T01:14:05;9.50;99.70
3648;DHT22;1840;48.892;15.312;2022-09-25T01:16:39;9.50;99.60
3648;DHT22;1840;48.892;15.312;2022-09-25T01:19:18;9.50;99.70
3648;DHT22;1840;48.892;15.312;2022-09-25T01:21:52;9.50;99.70
3648;DHT22;1840;48.892;15.312;2022-09-25T01:24:53;9.50;99.70
3648;DHT22;1840;48.892;15.312;2022-09-25T01:27:58;9.50;99.60
3648;DHT22;1840;48.892;15.312;2022-09-25T01:30:38;9.60;99.60
3648;DHT22;1840;48.892;15.312;2022-09-25T01:33:13;9.50;99.50
3648;DHT22;1840;48.892;15.312;2022-09-25T01:35:51;9.50;99.60
3648;DHT22;1840;48.892;15.312;2022-09-25T01:38:25;9.50;99.70
3648;DHT22;1840;48.892;15.312;2022-09-25T01:41:05;9.40;99.70
3648;DHT22;1840;48.892;15.312;2022-09-25T01:43:37;9.40;99.90
3648;DHT22;1840;48.892;15.312;2022-09-25T01:46:12;9.30;99.80
3648;DHT22;1840;48.892;15.312;2022-09-25T01:48:43;9.30;99.90
3648;DHT22;1840;48.892;15.312;2022-09-25T01:51:16;9.30;99.90
3648;DHT22;1840;48.892;15.312;2022-09-25T01:53:48;9.20;99.90
3648;DHT22;1840;48.892;15.312;2022-09-25T01:56:20;9.30;99.90
3648;DHT22;1840;48.892;15.312;2022-09-25T01:58:54;9.30;99.90
3648;DHT22;1840;48.892;15.312;2022-09-25T02:01:28;9.20;99.90
3648;DHT22;1840;48.892;15.312;2022-09-25T02:04:01;9.30;99.90
3648;DHT22;1840;48.892;15.312;2022-09-25T02:06:32;9.30;99.90
3648;DHT22;1840;48.892;15.312;2022-09-25T02:09:04;9.30;99.90
3648;DHT22;1840;48.892;15.312;2022-09-25T02:11:38;9.30;99.90
3648;DHT22;1840;48.892;15.312;2022-09-25T02:14:12;9.30;99.90
3648;DHT22;1840;48.892;15.312;2022-09-25T02:16:46;9.30;99.90
3648;DHT22;1840;48.892;15.312;2022-09-25T02:19:15;9.30;99.90
3648;DHT22;1840;48.892;15.312;2022-09-25T02:22:06;9.30;99.90
3648;DHT22;1840;48.892;15.312;2022-09-25T02:24:44;9.30;99.90
3648;DHT22;1840;48.892;15.312;2022-09-25T02:27:15;9.30;99.90
3648;DHT22;1840;48.892;15.312;2022-09-25T02:29:44;9.30;99.90
3648;DHT22;1840;48.892;15.312;2022-09-25T02:32:16;9.20;99.90
3648;DHT22;1840;48.892;15.312;2022-09-25T02:34:45;9.20;99.90
3648;DHT22;1840;48.892;15.312;2022-09-25T02:37:15;9.20;99.90
3648;DHT22;1840;48.892;15.312;2022-09-25T02:39:46;9.30;99.90
3648;DHT22;1840;48.892;15.312;2022-09-25T02:42:26;9.30;99.90
3648;DHT22;1840;48.892;15.312;2022-09-25T02:45:09;9.30;99.90
3648;DHT22;1840;48.892;15.312;2022-09-25T02:47:46;9.20;99.90
3648;DHT22;1840;48.892;15.312;2022-09-25T02:50:24;9.20;99.90
3648;DHT22;1840;48.892;15.312;2022-09-25T02:53:00;9.20;99.90
3648;DHT22;1840;48.892;15.312;2022-09-25T02:55:36;9.20;99.90
3648;DHT22;1840;48.892;15.312;2022-09-25T02:58:10;9.20;99.90
3648;DHT22;1840;48.892;15.312;2022-09-25T03:00:43;9.20;99.90
3648;DHT22;1840;48.892;15.312;2022-09-25T03:03:16;9.20;99.90
3648;DHT22;1840;48.892;15.312;2022-09-25T03:05:46;9.20;99.90
3648;DHT22;1840;48.892;15.312;2022-09-25T03:08:16;9.20;99.90
3648;DHT22;1840;48.892;15.312;2022-09-25T03:11:02;9.20;99.90
3648;DHT22;1840;48.892;15.312;2022-09-25T03:13:31;9.30;99.90
3648;DHT22;1840;48.892;15.312;2022-09-25T03:16:02;9.20;99.90
3648;DHT22;1840;48.892;15.312;2022-09-25T03:18:33;9.30;99.90
3648;DHT22;1840;48.892;15.312;2022-09-25T03:21:01;9.30;99.90
3648;DHT22;1840;48.892;15.312;2022-09-25T03:23:30;9.30;99.90
3648;DHT22;1840;48.892;15.312;2022-09-25T03:25:58;9.30;99.90
3648;DHT22;1840;48.892;15.312;2022-09-25T03:28:27;9.30;99.90
3648;DHT22;1840;48.892;15.312;2022-09-25T03:31:00;9.40;99.80
3648;DHT22;1840;48.892;15.312;2022-09-25T03:33:32;9.30;99.80
3648;DHT22;1840;48.892;15.312;2022-09-25T03:36:08;9.30;99.90
3648;DHT22;1840;48.892;15.312;2022-09-25T03:38:38;9.30;99.90
3648;DHT22;1840;48.892;15.312;2022-09-25T03:41:07;9.30;99.90
3648;DHT22;1840;48.892;15.312;2022-09-25T03:43:36;9.30;99.90
3648;DHT22;1840;48.892;15.312;2022-09-25T03:46:06;9.40;99.90
3648;DHT22;1840;48.892;15.312;2022-09-25T03:48:35;9.40;99.90
3648;DHT22;1840;48.892;15.312;2022-09-25T03:51:05;9.40;99.90
3648;DHT22;1840;48.892;15.312;2022-09-25T03:53:33;9.30;99.90
3648;DHT22;1840;48.892;15.312;2022-09-25T03:56:05;9.30;99.90
3648;DHT22;1840;48.892;15.312;2022-09-25T03:58:34;9.20;99.90
3648;DHT22;1840;48.892;15.312;2022-09-25T04:01:03;9.20;99.90
3648;DHT22;1840;48.892;15.312;2022-09-25T04:03:33;9.20;99.90
3648;DHT22;1840;48.892;15.312;2022-09-25T04:06:02;9.20;99.90
3648;DHT22;1840;48.892;15.312;2022-09-25T04:08:34;9.20;99.90
3648;DHT22;1840;48.892;15.312;2022-09-25T04:11:03;9.20;99.90
3648;DHT22;1840;48.892;15.312;2022-09-25T04:13:34;9.20;99.90
3648;DHT22;1840;48.892;15.312;2022-09-25T04:16:04;9.10;99.90
3648;DHT22;1840;48.892;15.312;2022-09-25T04:18:34;9.20;99.90
3648;DHT22;1840;48.892;15.312;2022-09-25T04:21:04;9.20;99.90
3648;DHT22;1840;48.892;15.312;2022-09-25T04:23:34;9.20;99.90
3648;DHT22;1840;48.892;15.312;2022-09-25T04:26:02;9.30;99.90
3648;DHT22;1840;48.892;15.312;2022-09-25T04:28:31;9.30;99.90
3648;DHT22;1840;48.892;15.312;2022-09-25T04:30:59;9.30;99.90
3648;DHT22;1840;48.892;15.312;2022-09-25T04:33:28;9.30;99.90
3648;DHT22;1840;48.892;15.312;2022-09-25T04:36:14;9.30;99.90
3648;DHT22;1840;48.892;15.312;2022-09-25T04:38:44;9.40;99.90
3648;DHT22;1840;48.892;15.312;2022-09-25T04:41:12;9.30;99.90
3648;DHT22;1840;48.892;15.312;2022-09-25T04:43:42;9.20;99.90
3648;DHT22;1840;48.892;15.312;2022-09-25T04:46:11;9.20;99.90
3648;DHT22;1840;48.892;15.312;2022-09-25T04:48:47;9.20;99.90
3648;DHT22;1840;48.892;15.312;2022-09-25T04:51:15;9.30;99.90
3648;DHT22;1840;48.892;15.312;2022-09-25T04:53:44;9.30;99.90
3648;DHT22;1840;48.892;15.312;2022-09-25T04:56:12;9.30;99.90
3648;DHT22;1840;48.892;15.312;2022-09-25T04:58:44;9.30;99.90
3648;DHT22;1840;48.892;15.312;2022-09-25T05:01:12;9.30;99.90
3648;DHT22;1840;48.892;15.312;2022-09-25T05:03:40;9.20;99.90
3648;DHT22;1840;48.892;15.312;2022-09-25T05:06:09;9.10;99.90
3648;DHT22;1840;48.892;15.312;2022-09-25T05:08:37;9.00;99.90
3648;DHT22;1840;48.892;15.312;2022-09-25T05:11:07;9.00;99.90
3648;DHT22;1840;48.892;15.312;2022-09-25T05:13:35;9.00;99.90
3648;DHT22;1840;48.892;15.312;2022-09-25T05:16:03;9.00;99.90
3648;DHT22;1840;48.892;15.312;2022-09-25T05:18:31;9.10;99.90
3648;DHT22;1840;48.892;15.312;2022-09-25T05:21:02;9.10;99.90
3648;DHT22;1840;48.892;15.312;2022-09-25T05:23:31;9.20;99.90
3648;DHT22;1840;48.892;15.312;2022-09-25T05:25:59;9.30;99.90
3648;DHT22;1840;48.892;15.312;2022-09-25T05:28:30;9.40;99.90
3648;DHT22;1840;48.892;15.312;2022-09-25T05:30:59;9.40;99.90
3648;DHT22;1840;48.892;15.312;2022-09-25T05:33:28;9.50;99.90
3648;DHT22;1840;48.892;15.312;2022-09-25T05:35:59;9.50;99.90
3648;DHT22;1840;48.892;15.312;2022-09-25T05:38:28;9.60;99.90
3648;DHT22;1840;48.892;15.312;2022-09-25T05:41:00;9.60;99.90
3648;DHT22;1840;48.892;15.312;2022-09-25T05:43:32;9.60;99.90
3648;DHT22;1840;48.892;15.312;2022-09-25T05:46:02;9.60;99.90
3648;DHT22;1840;48.892;15.312;2022-09-25T05:48:30;9.60;99.90
3648;DHT22;1840;48.892;15.312;2022-09-25T05:50:59;9.60;99.90
3648;DHT22;1840;48.892;15.312;2022-09-25T05:53:27;9.60;99.90
3648;DHT22;1840;48.892;15.312;2022-09-25T05:55:57;9.60;99.90
3648;DHT22;1840;48.892;15.312;2022-09-25T05:58:27;9.50;99.90
3648;DHT22;1840;48.892;15.312;2022-09-25T06:00:59;9.60;99.90
3648;DHT22;1840;48.892;15.312;2022-09-25T06:03:27;9.60;99.90
3648;DHT22;1840;48.892;15.312;2022-09-25T06:05:56;9.50;99.90
3648;DHT22;1840;48.892;15.312;2022-09-25T06:08:24;9.50;99.90
3648;DHT22;1840;48.892;15.312;2022-09-25T06:10:53;9.60;99.90
3648;DHT22;1840;48.892;15.312;2022-09-25T06:13:23;9.60;99.90
3648;DHT22;1840;48.892;15.312;2022-09-25T06:15:51;9.60;99.90
3648;DHT22;1840;48.892;15.312;2022-09-25T06:18:23;9.70;99.90
3648;DHT22;1840;48.892;15.312;2022-09-25T06:20:58;9.80;99.90
3648;DHT22;1840;48.892;15.312;2022-09-25T06:23:26;9.70;99.90
3648;DHT22;1840;48.892;15.312;2022-09-25T06:25:59;9.70;99.90
3648;DHT22;1840;48.892;15.312;2022-09-25T06:28:27;9.80;99.90
3648;DHT22;1840;48.892;15.312;2022-09-25T06:30:58;9.80;99.90
3648;DHT22;1840;48.892;15.312;2022-09-25T06:33:28;9.80;99.90
3648;DHT22;1840;48.892;15.312;2022-09-25T06:35:56;9.90;99.90
3648;DHT22;1840;48.892;15.312;2022-09-25T06:38:24;10.00;99.90
3648;DHT22;1840;48.892;15.312;2022-09-25T06:40:52;10.00;99.90
3648;DHT22;1840;48.892;15.312;2022-09-25T06:43:25;9.90;99.90
3648;DHT22;1840;48.892;15.312;2022-09-25T06:45:54;10.00;99.90
3648;DHT22;1840;48.892;15.312;2022-09-25T06:48:27;10.00;99.90
3648;DHT22;1840;48.892;15.312;2022-09-25T06:50:57;10.00;99.90
3648;DHT22;1840;48.892;15.312;2022-09-25T06:53:25;10.10;99.90
3648;DHT22;1840;48.892;15.312;2022-09-25T06:55:56;10.10;99.90
3648;DHT22;1840;48.892;15.312;2022-09-25T06:58:25;10.00;99.90
3648;DHT22;1840;48.892;15.312;2022-09-25T07:00:54;10.10;99.90
3648;DHT22;1840;48.892;15.312;2022-09-25T07:03:23;10.20;99.90
3648;DHT22;1840;48.892;15.312;2022-09-25T07:06:11;10.10;99.90
3648;DHT22;1840;48.892;15.312;2022-09-25T07:08:40;10.30;99.90
3648;DHT22;1840;48.892;15.312;2022-09-25T07:11:11;10.40;99.90
3648;DHT22;1840;48.892;15.312;2022-09-25T07:13:41;10.40;99.90
3648;DHT22;1840;48.892;15.312;2022-09-25T07:16:12;10.60;99.90
3648;DHT22;1840;48.892;15.312;2022-09-25T07:18:40;10.60;99.90
3648;DHT22;1840;48.892;15.312;2022-09-25T07:21:12;10.70;99.90
3648;DHT22;1840;48.892;15.312;2022-09-25T07:23:41;10.70;99.90
3648;DHT22;1840;48.892;15.312;2022-09-25T07:26:11;10.70;99.90
3648;DHT22;1840;48.892;15.312;2022-09-25T07:28:41;10.90;99.90
3648;DHT22;1840;48.892;15.312;2022-09-25T07:31:12;10.90;99.90
3648;DHT22;1840;48.892;15.312;2022-09-25T07:33:40;10.90;99.90
3648;DHT22;1840;48.892;15.312;2022-09-25T07:36:09;10.90;99.90
3648;DHT22;1840;48.892;15.312;2022-09-25T07:38:39;10.90;99.90
3648;DHT22;1840;48.892;15.312;2022-09-25T07:41:09;10.90;99.90
3648;DHT22;1840;48.892;15.312;2022-09-25T07:43:39;10.80;99.90
3648;DHT22;1840;48.892;15.312;2022-09-25T07:46:09;10.80;99.90
3648;DHT22;1840;48.892;15.312;2022-09-25T07:48:38;10.80;99.90
3648;DHT22;1840;48.892;15.312;2022-09-25T07:51:07;10.80;99.90
3648;DHT22;1840;48.892;15.312;2022-09-25T07:53:35;10.80;99.90
3648;DHT22;1840;48.892;15.312;2022-09-25T07:56:05;10.70;99.90
3648;DHT22;1840;48.892;15.312;2022-09-25T07:58:34;10.80;99.90
3648;DHT22;1840;48.892;15.312;2022-09-25T08:01:04;10.80;99.90
3648;DHT22;1840;48.892;15.312;2022-09-25T08:03:33;10.80;99.90
3648;DHT22;1840;48.892;15.312;2022-09-25T08:06:03;10.90;99.90
3648;DHT22;1840;48.892;15.312;2022-09-25T08:08:33;10.90;99.90
3648;DHT22;1840;48.892;15.312;2022-09-25T08:11:02;10.90;99.90
3648;DHT22;1840;48.892;15.312;2022-09-25T08:13:34;11.00;99.90
3648;DHT22;1840;48.892;15.312;2022-09-25T08:16:05;11.10;99.90
3648;DHT22;1840;48.892;15.312;2022-09-25T08:18:33;11.10;99.90
3648;DHT22;1840;48.892;15.312;2022-09-25T08:21:02;11.10;99.90
3648;DHT22;1840;48.892;15.312;2022-09-25T08:23:31;11.20;99.90
3648;DHT22;1840;48.892;15.312;2022-09-25T08:25:59;11.30;99.90
3648;DHT22;1840;48.892;15.312;2022-09-25T08:28:28;11.30;99.90
3648;DHT22;1840;48.892;15.312;2022-09-25T08:30:59;11.40;99.90
3648;DHT22;1840;48.892;15.312;2022-09-25T08:33:30;11.40;99.90
3648;DHT22;1840;48.892;15.312;2022-09-25T08:36:02;11.50;99.90
3648;DHT22;1840;48.892;15.312;2022-09-25T08:38:31;11.40;99.90
3648;DHT22;1840;48.892;15.312;2022-09-25T08:41:01;11.50;99.90
3648;DHT22;1840;48.892;15.312;2022-09-25T08:43:33;11.50;99.90
3648;DHT22;1840;48.892;15.312;2022-09-25T08:46:11;11.60;99.90
3648;DHT22;1840;48.892;15.312;2022-09-25T08:48:59;11.60;99.90
3648;DHT22;1840;48.892;15.312;2022-09-25T08:51:35;11.40;99.90
3648;DHT22;1840;48.892;15.312;2022-09-25T08:54:04;11.50;99.90
3648;DHT22;1840;48.892;15.312;2022-09-25T08:56:33;11.60;99.90
3648;DHT22;1840;48.892;15.312;2022-09-25T08:59:13;11.60;99.90
3648;DHT22;1840;48.892;15.312;2022-09-25T09:01:51;11.60;99.90
3648;DHT22;1840;48.892;15.312;2022-09-25T09:04:25;11.80;99.90
3648;DHT22;1840;48.892;15.312;2022-09-25T09:06:58;11.90;99.90
3648;DHT22;1840;48.892;15.312;2022-09-25T09:09:53;11.90;99.90
3648;DHT22;1840;48.892;15.312;2022-09-25T09:12:26;12.00;99.90
3648;DHT22;1840;48.892;15.312;2022-09-25T09:15:06;12.00;99.90
3648;DHT22;1840;48.892;15.312;2022-09-25T09:17:41;12.10;99.90
3648;DHT22;1840;48.892;15.312;2022-09-25T09:20:15;12.10;99.90
3648;DHT22;1840;48.892;15.312;2022-09-25T09:22:48;12.20;99.90
3648;DHT22;1840;48.892;15.312;2022-09-25T09:25:25;12.30;99.90
3648;DHT22;1840;48.892;15.312;2022-09-25T09:28:11;12.40;99.90
3648;DHT22;1840;48.892;15.312;2022-09-25T09:30:52;12.40;99.90
3648;DHT22;1840;48.892;15.312;2022-09-25T09:33:42;12.40;99.90
3648;DHT22;1840;48.892;15.312;2022-09-25T09:36:21;12.50;99.90
3648;DHT22;1840;48.892;15.312;2022-09-25T09:38:57;12.50;99.90
3648;DHT22;1840;48.892;15.312;2022-09-25T09:41:44;12.40;99.90
3648;DHT22;1840;48.892;15.312;2022-09-25T09:44:27;12.40;99.90
3648;DHT22;1840;48.892;15.312;2022-09-25T09:47:04;12.40;99.90
3648;DHT22;1840;48.892;15.312;2022-09-25T09:49:40;12.30;99.90
3648;DHT22;1840;48.892;15.312;2022-09-25T09:52:12;12.40;99.90
3648;DHT22;1840;48.892;15.312;2022-09-25T09:54:45;12.40;99.90
3648;DHT22;1840;48.892;15.312;2022-09-25T09:57:18;12.30;99.90
3648;DHT22;1840;48.892;15.312;2022-09-25T09:59:51;12.20;99.90
3648;DHT22;1840;48.892;15.312;2022-09-25T10:02:29;12.20;99.90
3648;DHT22;1840;48.892;15.312;2022-09-25T10:05:05;12.40;99.90
3648;DHT22;1840;48.892;15.312;2022-09-25T10:07:37;12.40;99.90
3648;DHT22;1840;48.892;15.312;2022-09-25T10:10:11;12.40;99.90
3648;DHT22;1840;48.892;15.312;2022-09-25T10:12:44;12.50;99.90
3648;DHT22;1840;48.892;15.312;2022-09-25T10:15:26;12.30;99.90
3648;DHT22;1840;48.892;15.312;2022-09-25T10:17:58;12.40;99.90
3648;DHT22;1840;48.892;15.312;2022-09-25T10:20:35;12.50;99.90
3648;DHT22;1840;48.892;15.312;2022-09-25T10:23:16;12.50;99.90
3648;DHT22;1840;48.892;15.312;2022-09-25T10:25:48;12.50;99.90
3648;DHT22;1840;48.892;15.312;2022-09-25T10:28:26;12.70;99.90
3648;DHT22;1840;48.892;15.312;2022-09-25T10:30:55;12.80;99.90
3648;DHT22;1840;48.892;15.312;2022-09-25T10:33:26;12.90;99.90
3648;DHT22;1840;48.892;15.312;2022-09-25T10:35:56;12.70;99.90
3648;DHT22;1840;48.892;15.312;2022-09-25T10:38:31;12.60;99.90
3648;DHT22;1840;48.892;15.312;2022-09-25T10:41:04;12.90;99.90
3648;DHT22;1840;48.892;15.312;2022-09-25T10:43:33;12.80;99.90
3648;DHT22;1840;48.892;15.312;2022-09-25T10:46:11;13.00;99.90
3648;DHT22;1840;48.892;15.312;2022-09-25T10:48:40;13.20;99.90
3648;DHT22;1840;48.892;15.312;2022-09-25T10:51:28;13.30;99.90
3648;DHT22;1840;48.892;15.312;2022-09-25T10:54:10;13.30;99.60
3648;DHT22;1840;48.892;15.312;2022-09-25T10:56:39;13.00;99.30
3648;DHT22;1840;48.892;15.312;2022-09-25T10:59:12;12.90;99.70
3648;DHT22;1840;48.892;15.312;2022-09-25T11:01:45;12.70;99.30
3648;DHT22;1840;48.892;15.312;2022-09-25T11:04:17;12.60;99.70
3648;DHT22;1840;48.892;15.312;2022-09-25T11:06:50;12.80;99.80
3648;DHT22;1840;48.892;15.312;2022-09-25T11:09:21;12.70;99.90
3648;DHT22;1840;48.892;15.312;2022-09-25T11:11:53;12.70;99.70
3648;DHT22;1840;48.892;15.312;2022-09-25T11:14:33;12.80;99.90
3648;DHT22;1840;48.892;15.312;2022-09-25T11:17:03;12.90;99.90
3648;DHT22;1840;48.892;15.312;2022-09-25T11:19:34;12.80;99.90
3648;DHT22;1840;48.892;15.312;2022-09-25T11:22:14;12.80;99.90
3648;DHT22;1840;48.892;15.312;2022-09-25T11:24:50;12.90;99.90
3648;DHT22;1840;48.892;15.312;2022-09-25T11:27:32;13.00;99.80
3648;DHT22;1840;48.892;15.312;2022-09-25T11:30:04;13.00;99.80
3648;DHT22;1840;48.892;15.312;2022-09-25T11:32:38;13.10;99.90
3648;DHT22;1840;48.892;15.312;2022-09-25T11:35:21;13.10;99.90
3648;DHT22;1840;48.892;15.312;2022-09-25T11:38:01;13.10;99.90
3648;DHT22;1840;48.892;15.312;2022-09-25T11:40:37;13.40;99.90
3648;DHT22;1840;48.892;15.312;2022-09-25T11:43:33;13.40;99.90
3648;DHT22;1840;48.892;15.312;2022-09-25T11:46:05;13.60;99.50
3648;DHT22;1840;48.892;15.312;2022-09-25T11:48:51;13.60;99.80
3648;DHT22;1840;48.892;15.312;2022-09-25T11:51:28;13.50;99.40
3648;DHT22;1840;48.892;15.312;2022-09-25T11:54:09;13.70;99.50
3648;DHT22;1840;48.892;15.312;2022-09-25T11:57:03;13.70;99.20
3648;DHT22;1840;48.892;15.312;2022-09-25T11:59:42;13.60;98.40
3648;DHT22;1840;48.892;15.312;2022-09-25T12:02:21;13.60;99.00
3648;DHT22;1840;48.892;15.312;2022-09-25T12:05:03;13.60;99.10
3648;DHT22;1840;48.892;15.312;2022-09-25T12:07:45;13.40;98.70
3648;DHT22;1840;48.892;15.312;2022-09-25T12:10:26;13.30;99.00
3648;DHT22;1840;48.892;15.312;2022-09-25T12:13:00;13.40;99.10
3648;DHT22;1840;48.892;15.312;2022-09-25T12:15:41;13.50;99.10
3648;DHT22;1840;48.892;15.312;2022-09-25T12:18:19;13.70;99.20
3648;DHT22;1840;48.892;15.312;2022-09-25T12:20:53;13.90;99.10
3648;DHT22;1840;48.892;15.312;2022-09-25T12:23:29;13.90;99.20
3648;DHT22;1840;48.892;15.312;2022-09-25T12:26:11;13.80;99.10
3648;DHT22;1840;48.892;15.312;2022-09-25T12:28:52;13.80;98.80
3648;DHT22;1840;48.892;15.312;2022-09-25T12:31:30;13.90;99.20
3648;DHT22;1840;48.892;15.312;2022-09-25T12:34:06;13.70;99.00
3648;DHT22;1840;48.892;15.312;2022-09-25T12:36:41;13.70;98.90
3648;DHT22;1840;48.892;15.312;2022-09-25T12:39:24;13.60;98.80
3648;DHT22;1840;48.892;15.312;2022-09-25T12:42:02;13.70;98.80
3648;DHT22;1840;48.892;15.312;2022-09-25T12:44:41;13.70;98.70
3648;DHT22;1840;48.892;15.312;2022-09-25T12:47:16;13.80;98.90
3648;DHT22;1840;48.892;15.312;2022-09-25T12:49:52;13.80;98.90
3648;DHT22;1840;48.892;15.312;2022-09-25T12:52:24;13.90;98.90
3648;DHT22;1840;48.892;15.312;2022-09-25T12:54:57;13.90;98.40
3648;DHT22;1840;48.892;15.312;2022-09-25T12:57:34;13.90;98.30
3648;DHT22;1840;48.892;15.312;2022-09-25T13:00:05;13.90;98.30
3648;DHT22;1840;48.892;15.312;2022-09-25T13:02:39;13.90;98.50
3648;DHT22;1840;48.892;15.312;2022-09-25T13:05:15;13.90;98.70
3648;DHT22;1840;48.892;15.312;2022-09-25T13:07:51;14.10;98.70
3648;DHT22;1840;48.892;15.312;2022-09-25T13:10:28;14.30;98.40
3648;DHT22;1840;48.892;15.312;2022-09-25T13:13:00;14.30;97.70
3648;DHT22;1840;48.892;15.312;2022-09-25T13:15:31;14.30;98.20
3648;DHT22;1840;48.892;15.312;2022-09-25T13:18:10;14.50;98.10
3648;DHT22;1840;48.892;15.312;2022-09-25T13:20:50;14.40;97.10
3648;DHT22;1840;48.892;15.312;2022-09-25T13:23:29;14.40;96.70
3648;DHT22;1840;48.892;15.312;2022-09-25T13:25:59;14.30;96.80
3648;DHT22;1840;48.892;15.312;2022-09-25T13:28:32;14.40;97.30
3648;DHT22;1840;48.892;15.312;2022-09-25T13:31:09;14.40;97.00
3648;DHT22;1840;48.892;15.312;2022-09-25T13:33:44;14.40;97.50
3648;DHT22;1840;48.892;15.312;2022-09-25T13:36:29;14.40;97.00
3648;DHT22;1840;48.892;15.312;2022-09-25T13:38:59;14.30;97.50
3648;DHT22;1840;48.892;15.312;2022-09-25T13:41:48;14.40;97.20
3648;DHT22;1840;48.892;15.312;2022-09-25T13:50:39;14.40;97.20
3648;DHT22;1840;48.892;15.312;2022-09-25T13:53:26;14.40;97.20
3648;DHT22;1840;48.892;15.312;2022-09-25T13:56:27;14.40;97.30
3648;DHT22;1840;48.892;15.312;2022-09-25T13:59:01;14.50;97.50
3648;DHT22;1840;48.892;15.312;2022-09-25T14:01:36;14.50;97.50
3648;DHT22;1840;48.892;15.312;2022-09-25T14:04:09;14.30;97.30
3648;DHT22;1840;48.892;15.312;2022-09-25T14:06:41;14.30;97.80
3648;DHT22;1840;48.892;15.312;2022-09-25T14:09:12;14.40;97.80
3648;DHT22;1840;48.892;15.312;2022-09-25T14:11:42;14.40;97.60
3648;DHT22;1840;48.892;15.312;2022-09-25T14:14:25;14.50;97.70
3648;DHT22;1840;48.892;15.312;2022-09-25T14:16:56;14.50;97.90
3648;DHT22;1840;48.892;15.312;2022-09-25T14:19:27;14.50;98.00
3648;DHT22;1840;48.892;15.312;2022-09-25T14:21:58;14.50;97.80
3648;DHT22;1840;48.892;15.312;2022-09-25T14:24:28;14.50;97.80
3648;DHT22;1840;48.892;15.312;2022-09-25T14:26:58;14.50;97.70
3648;DHT22;1840;48.892;15.312;2022-09-25T14:29:30;14.50;97.60
3648;DHT22;1840;48.892;15.312;2022-09-25T14:32:10;14.50;97.60
3648;DHT22;1840;48.892;15.312;2022-09-25T14:35:25;14.50;97.50
3648;DHT22;1840;48.892;15.312;2022-09-25T14:38:18;14.50;97.50
3648;DHT22;1840;48.892;15.312;2022-09-25T14:40:59;14.40;97.50
3648;DHT22;1840;48.892;15.312;2022-09-25T14:43:43;14.30;97.40
3648;DHT22;1840;48.892;15.312;2022-09-25T14:46:16;14.30;97.70
3648;DHT22;1840;48.892;15.312;2022-09-25T14:48:50;14.30;97.40
3648;DHT22;1840;48.892;15.312;2022-09-25T14:51:22;14.20;97.60
3648;DHT22;1840;48.892;15.312;2022-09-25T14:53:54;14.20;97.70
3648;DHT22;1840;48.892;15.312;2022-09-25T14:56:24;14.00;97.80
3648;DHT22;1840;48.892;15.312;2022-09-25T14:58:55;14.00;97.70
3648;DHT22;1840;48.892;15.312;2022-09-25T15:01:26;14.00;97.70
3648;DHT22;1840;48.892;15.312;2022-09-25T15:03:58;14.00;97.70
3648;DHT22;1840;48.892;15.312;2022-09-25T15:06:30;14.10;97.80
3648;DHT22;1840;48.892;15.312;2022-09-25T15:08:59;14.10;97.70
3648;DHT22;1840;48.892;15.312;2022-09-25T15:11:39;14.00;97.90
3648;DHT22;1840;48.892;15.312;2022-09-25T15:14:09;14.00;97.60
3648;DHT22;1840;48.892;15.312;2022-09-25T15:16:38;14.00;97.70
3648;DHT22;1840;48.892;15.312;2022-09-25T15:19:26;13.90;97.90
3648;DHT22;1840;48.892;15.312;2022-09-25T15:21:58;13.90;97.80
3648;DHT22;1840;48.892;15.312;2022-09-25T15:24:29;13.90;97.80
3648;DHT22;1840;48.892;15.312;2022-09-25T15:27:00;13.90;97.80
3648;DHT22;1840;48.892;15.312;2022-09-25T15:29:33;13.80;97.90
3648;DHT22;1840;48.892;15.312;2022-09-25T15:32:03;13.70;98.00
3648;DHT22;1840;48.892;15.312;2022-09-25T15:34:33;13.70;98.10
3648;DHT22;1840;48.892;15.312;2022-09-25T15:37:19;13.70;98.20
3648;DHT22;1840;48.892;15.312;2022-09-25T15:39:52;13.60;98.20
3648;DHT22;1840;48.892;15.312;2022-09-25T15:42:20;13.60;98.40
3648;DHT22;1840;48.892;15.312;2022-09-25T15:44:48;13.60;98.40
3648;DHT22;1840;48.892;15.312;2022-09-25T15:47:47;13.50;98.30
3648;DHT22;1840;48.892;15.312;2022-09-25T15:50:24;13.50;98.20
3648;DHT22;1840;48.892;15.312;2022-09-25T15:52:54;13.50;98.30
3648;DHT22;1840;48.892;15.312;2022-09-25T15:55:24;13.40;98.50
3648;DHT22;1840;48.892;15.312;2022-09-25T15:57:53;13.40;98.60
3648;DHT22;1840;48.892;15.312;2022-09-25T16:00:24;13.30;98.60
3648;DHT22;1840;48.892;15.312;2022-09-25T16:03:14;13.30;98.70
3648;DHT22;1840;48.892;15.312;2022-09-25T16:06:03;13.20;98.50
3648;DHT22;1840;48.892;15.312;2022-09-25T16:08:33;13.10;98.30
3648;DHT22;1840;48.892;15.312;2022-09-25T16:11:05;13.10;98.40
3648;DHT22;1840;48.892;15.312;2022-09-25T16:13:44;13.10;98.50
3648;DHT22;1840;48.892;15.312;2022-09-25T16:16:19;13.10;98.50
3648;DHT22;1840;48.892;15.312;2022-09-25T16:18:48;13.10;98.70
3648;DHT22;1840;48.892;15.312;2022-09-25T16:21:26;13.10;98.70
3648;DHT22;1840;48.892;15.312;2022-09-25T16:23:57;13.10;98.80
3648;DHT22;1840;48.892;15.312;2022-09-25T16:26:30;13.10;98.90
3648;DHT22;1840;48.892;15.312;2022-09-25T16:29:03;13.00;99.20
3648;DHT22;1840;48.892;15.312;2022-09-25T16:31:32;12.90;99.10
3648;DHT22;1840;48.892;15.312;2022-09-25T16:34:02;12.80;99.40
3648;DHT22;1840;48.892;15.312;2022-09-25T16:36:41;12.60;99.50
3648;DHT22;1840;48.892;15.312;2022-09-25T16:39:21;12.50;99.70